sensor_id;sensor_type;location;lat;lon;timestamp;P1;durP1;ratioP1;P2;durP2;ratioP2
52180;SDS011;38158;53.338;6.514;2023-07-13T00:01:53;14.57;;;3.28;;
52180;SDS011;38158;53.338;6.514;2023-07-13T00:04:20;12.20;;;3.27;;
52180;SDS011;38158;53.338;6.514;2023-07-13T00:06:48;12.43;;;3.20;;
52180;SDS011;38158;53.338;6.514;2023-07-13T00:09:15;14.20;;;2.72;;
52180;SDS011;38158;53.338;6.514;2023-07-13T00:14:08;10.63;;;2.78;;
52180;SDS011;38158;53.338;6.514;2023-07-13T00:16:35;7.47;;;2.57;;
52180;SDS011;38158;53.338;6.514;2023-07-13T00:21:28;13.52;;;3.40;;
52180;SDS011;38158;53.338;6.514;2023-07-13T00:23:54;16.15;;;3.78;;
52180;SDS011;38158;53.338;6.514;2023-07-13T00:26:20;13.65;;;3.10;;
52180;SDS011;38158;53.338;6.514;2023-07-13T00:28:46;11.18;;;2.42;;
52180;SDS011;38158;53.338;6.514;2023-07-13T00:31:12;15.48;;;3.25;;
52180;SDS011;38158;53.338;6.514;2023-07-13T00:33:42;15.73;;;3.00;;
52180;SDS011;38158;53.338;6.514;2023-07-13T00:36:08;12.27;;;3.13;;
52180;SDS011;38158;53.338;6.514;2023-07-13T00:38:35;12.30;;;2.45;;
52180;SDS011;38158;53.338;6.514;2023-07-13T00:41:01;9.20;;;2.80;;
52180;SDS011;38158;53.338;6.514;2023-07-13T00:43:28;13.20;;;2.95;;
52180;SDS011;38158;53.338;6.514;2023-07-13T00:48:21;15.32;;;2.85;;
52180;SDS011;38158;53.338;6.514;2023-07-13T00:50:55;12.38;;;3.58;;
52180;SDS011;38158;53.338;6.514;2023-07-13T00:53:23;11.93;;;3.08;;
52180;SDS011;38158;53.338;6.514;2023-07-13T00:55:51;13.88;;;2.75;;
52180;SDS011;38158;53.338;6.514;2023-07-13T00:58:20;12.48;;;3.53;;
52180;SDS011;38158;53.338;6.514;2023-07-13T01:00:46;13.23;;;3.10;;
52180;SDS011;38158;53.338;6.514;2023-07-13T01:03:13;12.23;;;3.20;;
52180;SDS011;38158;53.338;6.514;2023-07-13T01:05:40;15.57;;;3.10;;
52180;SDS011;38158;53.338;6.514;2023-07-13T01:08:06;15.60;;;3.22;;
52180;SDS011;38158;53.338;6.514;2023-07-13T01:10:32;15.63;;;3.35;;
52180;SDS011;38158;53.338;6.514;2023-07-13T01:13:03;12.35;;;3.10;;
52180;SDS011;38158;53.338;6.514;2023-07-13T01:18:01;11.57;;;3.25;;
52180;SDS011;38158;53.338;6.514;2023-07-13T01:20:27;13.75;;;3.40;;
52180;SDS011;38158;53.338;6.514;2023-07-13T01:22:53;14.05;;;2.97;;
52180;SDS011;38158;53.338;6.514;2023-07-13T01:25:20;8.07;;;3.00;;
52180;SDS011;38158;53.338;6.514;2023-07-13T01:30:12;13.00;;;3.72;;
52180;SDS011;38158;53.338;6.514;2023-07-13T01:32:38;10.13;;;2.72;;
52180;SDS011;38158;53.338;6.514;2023-07-13T01:35:07;11.30;;;2.95;;
52180;SDS011;38158;53.338;6.514;2023-07-13T01:37:33;12.70;;;3.05;;
52180;SDS011;38158;53.338;6.514;2023-07-13T01:40:02;11.82;;;2.75;;
52180;SDS011;38158;53.338;6.514;2023-07-13T01:42:29;16.73;;;3.00;;
52180;SDS011;38158;53.338;6.514;2023-07-13T01:44:55;11.48;;;2.63;;
52180;SDS011;38158;53.338;6.514;2023-07-13T01:47:22;12.55;;;2.85;;
52180;SDS011;38158;53.338;6.514;2023-07-13T01:49:48;9.68;;;2.70;;
52180;SDS011;38158;53.338;6.514;2023-07-13T01:52:16;10.25;;;2.50;;
52180;SDS011;38158;53.338;6.514;2023-07-13T01:54:42;15.75;;;3.65;;
52180;SDS011;38158;53.338;6.514;2023-07-13T01:57:08;12.48;;;2.75;;
52180;SDS011;38158;53.338;6.514;2023-07-13T01:59:34;10.13;;;2.70;;
52180;SDS011;38158;53.338;6.514;2023-07-13T02:02:00;8.32;;;2.95;;
52180;SDS011;38158;53.338;6.514;2023-07-13T02:04:25;9.55;;;2.78;;
52180;SDS011;38158;53.338;6.514;2023-07-13T02:06:51;11.32;;;3.20;;
52180;SDS011;38158;53.338;6.514;2023-07-13T02:09:17;8.10;;;2.40;;
52180;SDS011;38158;53.338;6.514;2023-07-13T02:11:42;12.50;;;2.72;;
52180;SDS011;38158;53.338;6.514;2023-07-13T02:14:08;7.10;;;2.10;;
52180;SDS011;38158;53.338;6.514;2023-07-13T02:16:34;10.57;;;2.42;;
52180;SDS011;38158;53.338;6.514;2023-07-13T02:19:00;8.95;;;2.90;;
52180;SDS011;38158;53.338;6.514;2023-07-13T02:21:25;6.72;;;2.17;;
52180;SDS011;38158;53.338;6.514;2023-07-13T02:23:51;8.60;;;2.17;;
52180;SDS011;38158;53.338;6.514;2023-07-13T02:26:18;12.50;;;2.28;;
52180;SDS011;38158;53.338;6.514;2023-07-13T02:28:44;7.30;;;2.17;;
52180;SDS011;38158;53.338;6.514;2023-07-13T02:31:11;7.90;;;2.05;;
52180;SDS011;38158;53.338;6.514;2023-07-13T02:33:38;4.97;;;1.30;;
52180;SDS011;38158;53.338;6.514;2023-07-13T02:36:04;6.90;;;1.50;;
52180;SDS011;38158;53.338;6.514;2023-07-13T02:38:31;9.52;;;1.27;;
52180;SDS011;38158;53.338;6.514;2023-07-13T02:41:01;6.50;;;1.20;;
52180;SDS011;38158;53.338;6.514;2023-07-13T02:43:28;5.05;;;1.30;;
52180;SDS011;38158;53.338;6.514;2023-07-13T02:45:55;7.28;;;1.40;;
52180;SDS011;38158;53.338;6.514;2023-07-13T02:48:20;4.60;;;0.70;;
52180;SDS011;38158;53.338;6.514;2023-07-13T02:50:46;4.22;;;0.85;;
52180;SDS011;38158;53.338;6.514;2023-07-13T02:53:12;6.00;;;0.95;;
52180;SDS011;38158;53.338;6.514;2023-07-13T02:55:38;4.05;;;0.90;;
52180;SDS011;38158;53.338;6.514;2023-07-13T02:58:06;6.35;;;0.88;;
52180;SDS011;38158;53.338;6.514;2023-07-13T03:00:32;3.07;;;0.80;;
52180;SDS011;38158;53.338;6.514;2023-07-13T03:02:58;4.43;;;0.90;;
52180;SDS011;38158;53.338;6.514;2023-07-13T03:05:23;5.85;;;1.00;;
52180;SDS011;38158;53.338;6.514;2023-07-13T03:07:49;5.25;;;0.90;;
52180;SDS011;38158;53.338;6.514;2023-07-13T03:10:15;6.50;;;0.80;;
52180;SDS011;38158;53.338;6.514;2023-07-13T03:12:41;6.45;;;1.02;;
52180;SDS011;38158;53.338;6.514;2023-07-13T03:15:07;3.50;;;0.70;;
52180;SDS011;38158;53.338;6.514;2023-07-13T03:17:33;3.42;;;0.80;;
52180;SDS011;38158;53.338;6.514;2023-07-13T03:19:59;3.28;;;0.63;;
52180;SDS011;38158;53.338;6.514;2023-07-13T03:22:24;4.60;;;0.88;;
52180;SDS011;38158;53.338;6.514;2023-07-13T03:24:50;3.50;;;0.85;;
52180;SDS011;38158;53.338;6.514;2023-07-13T03:27:17;5.60;;;1.17;;
52180;SDS011;38158;53.338;6.514;2023-07-13T03:29:43;5.00;;;1.02;;
52180;SDS011;38158;53.338;6.514;2023-07-13T03:32:09;4.35;;;0.88;;
52180;SDS011;38158;53.338;6.514;2023-07-13T03:34:35;4.43;;;1.27;;
52180;SDS011;38158;53.338;6.514;2023-07-13T03:37:00;5.43;;;1.10;;
52180;SDS011;38158;53.338;6.514;2023-07-13T03:39:26;6.63;;;0.95;;
52180;SDS011;38158;53.338;6.514;2023-07-13T03:41:52;3.42;;;1.10;;
52180;SDS011;38158;53.338;6.514;2023-07-13T03:44:18;7.10;;;1.35;;
52180;SDS011;38158;53.338;6.514;2023-07-13T03:46:44;5.55;;;1.35;;
52180;SDS011;38158;53.338;6.514;2023-07-13T03:49:10;8.48;;;1.85;;
52180;SDS011;38158;53.338;6.514;2023-07-13T03:51:36;6.28;;;1.45;;
52180;SDS011;38158;53.338;6.514;2023-07-13T03:54:02;9.45;;;1.65;;
52180;SDS011;38158;53.338;6.514;2023-07-13T03:56:29;3.63;;;1.37;;
52180;SDS011;38158;53.338;6.514;2023-07-13T03:58:55;5.65;;;1.90;;
52180;SDS011;38158;53.338;6.514;2023-07-13T04:01:22;7.97;;;1.60;;
52180;SDS011;38158;53.338;6.514;2023-07-13T04:03:50;8.23;;;1.67;;
52180;SDS011;38158;53.338;6.514;2023-07-13T04:06:20;8.18;;;2.10;;
52180;SDS011;38158;53.338;6.514;2023-07-13T04:08:58;10.15;;;2.67;;
52180;SDS011;38158;53.338;6.514;2023-07-13T04:11:26;11.88;;;2.30;;
52180;SDS011;38158;53.338;6.514;2023-07-13T04:13:53;9.88;;;2.42;;
52180;SDS011;38158;53.338;6.514;2023-07-13T04:16:20;6.82;;;2.25;;
52180;SDS011;38158;53.338;6.514;2023-07-13T04:18:46;8.65;;;3.30;;
52180;SDS011;38158;53.338;6.514;2023-07-13T04:21:13;9.07;;;2.20;;
52180;SDS011;38158;53.338;6.514;2023-07-13T04:23:40;9.23;;;2.72;;
52180;SDS011;38158;53.338;6.514;2023-07-13T04:26:06;14.00;;;2.97;;
52180;SDS011;38158;53.338;6.514;2023-07-13T04:28:33;9.63;;;2.65;;
52180;SDS011;38158;53.338;6.514;2023-07-13T04:30:59;12.55;;;3.85;;
52180;SDS011;38158;53.338;6.514;2023-07-13T04:33:25;13.18;;;3.75;;
52180;SDS011;38158;53.338;6.514;2023-07-13T04:38:21;10.55;;;3.45;;
52180;SDS011;38158;53.338;6.514;2023-07-13T04:40:53;8.23;;;2.55;;
52180;SDS011;38158;53.338;6.514;2023-07-13T04:43:24;11.48;;;3.03;;
52180;SDS011;38158;53.338;6.514;2023-07-13T04:45:51;12.00;;;3.00;;
52180;SDS011;38158;53.338;6.514;2023-07-13T04:48:17;14.63;;;3.90;;
52180;SDS011;38158;53.338;6.514;2023-07-13T04:50:43;12.95;;;3.65;;
52180;SDS011;38158;53.338;6.514;2023-07-13T04:53:09;14.93;;;3.60;;
52180;SDS011;38158;53.338;6.514;2023-07-13T04:55:36;10.60;;;3.17;;
52180;SDS011;38158;53.338;6.514;2023-07-13T04:58:02;10.57;;;3.70;;
52180;SDS011;38158;53.338;6.514;2023-07-13T05:00:29;11.25;;;2.95;;
52180;SDS011;38158;53.338;6.514;2023-07-13T05:02:55;14.73;;;4.27;;
52180;SDS011;38158;53.338;6.514;2023-07-13T05:05:22;12.10;;;3.30;;
52180;SDS011;38158;53.338;6.514;2023-07-13T05:07:49;13.82;;;3.53;;
52180;SDS011;38158;53.338;6.514;2023-07-13T05:10:15;9.32;;;2.55;;
52180;SDS011;38158;53.338;6.514;2023-07-13T05:12:41;13.00;;;3.27;;
52180;SDS011;38158;53.338;6.514;2023-07-13T05:15:07;14.20;;;2.88;;
52180;SDS011;38158;53.338;6.514;2023-07-13T05:17:33;12.05;;;2.65;;
52180;SDS011;38158;53.338;6.514;2023-07-13T05:19:59;14.82;;;3.50;;
52180;SDS011;38158;53.338;6.514;2023-07-13T05:22:24;11.82;;;2.53;;
52180;SDS011;38158;53.338;6.514;2023-07-13T05:24:50;7.50;;;2.10;;
52180;SDS011;38158;53.338;6.514;2023-07-13T05:27:16;11.00;;;2.45;;
52180;SDS011;38158;53.338;6.514;2023-07-13T05:29:42;9.90;;;2.70;;
52180;SDS011;38158;53.338;6.514;2023-07-13T05:32:07;15.10;;;3.00;;
52180;SDS011;38158;53.338;6.514;2023-07-13T05:34:33;9.05;;;2.90;;
52180;SDS011;38158;53.338;6.514;2023-07-13T05:36:59;9.35;;;2.88;;
52180;SDS011;38158;53.338;6.514;2023-07-13T05:39:25;10.05;;;2.80;;
52180;SDS011;38158;53.338;6.514;2023-07-13T05:41:52;7.43;;;2.60;;
52180;SDS011;38158;53.338;6.514;2023-07-13T05:44:18;8.73;;;2.53;;
52180;SDS011;38158;53.338;6.514;2023-07-13T05:46:44;9.82;;;2.70;;
52180;SDS011;38158;53.338;6.514;2023-07-13T05:49:10;10.48;;;2.45;;
52180;SDS011;38158;53.338;6.514;2023-07-13T05:51:36;9.05;;;3.30;;
52180;SDS011;38158;53.338;6.514;2023-07-13T05:54:02;13.05;;;3.50;;
52180;SDS011;38158;53.338;6.514;2023-07-13T05:56:28;12.70;;;3.38;;
52180;SDS011;38158;53.338;6.514;2023-07-13T05:58:54;7.60;;;2.60;;
52180;SDS011;38158;53.338;6.514;2023-07-13T06:01:21;12.93;;;3.08;;
52180;SDS011;38158;53.338;6.514;2023-07-13T06:03:47;5.88;;;2.08;;
52180;SDS011;38158;53.338;6.514;2023-07-13T06:06:13;7.40;;;2.25;;
52180;SDS011;38158;53.338;6.514;2023-07-13T06:08:40;9.00;;;2.15;;
52180;SDS011;38158;53.338;6.514;2023-07-13T06:11:09;11.53;;;2.47;;
52180;SDS011;38158;53.338;6.514;2023-07-13T06:13:38;9.60;;;1.90;;
52180;SDS011;38158;53.338;6.514;2023-07-13T06:16:05;9.18;;;2.78;;
52180;SDS011;38158;53.338;6.514;2023-07-13T06:18:31;7.25;;;1.92;;
52180;SDS011;38158;53.338;6.514;2023-07-13T06:20:58;8.13;;;2.10;;
52180;SDS011;38158;53.338;6.514;2023-07-13T06:23:24;6.88;;;2.20;;
52180;SDS011;38158;53.338;6.514;2023-07-13T06:25:50;6.97;;;2.20;;
52180;SDS011;38158;53.338;6.514;2023-07-13T06:28:16;7.78;;;1.77;;
52180;SDS011;38158;53.338;6.514;2023-07-13T06:30:42;5.47;;;1.88;;
52180;SDS011;38158;53.338;6.514;2023-07-13T06:33:08;11.52;;;2.33;;
52180;SDS011;38158;53.338;6.514;2023-07-13T06:35:33;8.98;;;1.75;;
52180;SDS011;38158;53.338;6.514;2023-07-13T06:37:59;8.60;;;2.15;;
52180;SDS011;38158;53.338;6.514;2023-07-13T06:40:25;9.68;;;2.13;;
52180;SDS011;38158;53.338;6.514;2023-07-13T06:42:53;7.75;;;2.05;;
52180;SDS011;38158;53.338;6.514;2023-07-13T06:45:19;10.50;;;2.60;;
52180;SDS011;38158;53.338;6.514;2023-07-13T06:47:45;11.05;;;2.30;;
52180;SDS011;38158;53.338;6.514;2023-07-13T06:50:10;10.90;;;1.77;;
52180;SDS011;38158;53.338;6.514;2023-07-13T06:52:36;10.02;;;2.55;;
52180;SDS011;38158;53.338;6.514;2023-07-13T06:55:02;6.85;;;1.67;;
52180;SDS011;38158;53.338;6.514;2023-07-13T06:57:28;4.75;;;1.52;;
52180;SDS011;38158;53.338;6.514;2023-07-13T06:59:54;3.67;;;0.93;;
52180;SDS011;38158;53.338;6.514;2023-07-13T07:02:19;4.78;;;1.10;;
52180;SDS011;38158;53.338;6.514;2023-07-13T07:04:45;7.18;;;1.35;;
52180;SDS011;38158;53.338;6.514;2023-07-13T07:07:11;3.30;;;1.13;;
52180;SDS011;38158;53.338;6.514;2023-07-13T07:09:37;5.68;;;1.30;;
52180;SDS011;38158;53.338;6.514;2023-07-13T07:12:02;4.85;;;0.95;;
52180;SDS011;38158;53.338;6.514;2023-07-13T07:14:29;4.07;;;1.00;;
52180;SDS011;38158;53.338;6.514;2023-07-13T07:16:55;6.22;;;0.95;;
52180;SDS011;38158;53.338;6.514;2023-07-13T07:19:21;4.00;;;0.93;;
52180;SDS011;38158;53.338;6.514;2023-07-13T07:21:47;5.33;;;0.90;;
52180;SDS011;38158;53.338;6.514;2023-07-13T07:24:13;4.45;;;1.13;;
52180;SDS011;38158;53.338;6.514;2023-07-13T07:26:40;3.85;;;0.82;;
52180;SDS011;38158;53.338;6.514;2023-07-13T07:29:06;6.95;;;1.10;;
52180;SDS011;38158;53.338;6.514;2023-07-13T07:31:32;4.60;;;0.77;;
52180;SDS011;38158;53.338;6.514;2023-07-13T07:33:58;2.42;;;0.60;;
52180;SDS011;38158;53.338;6.514;2023-07-13T07:36:23;3.47;;;0.93;;
52180;SDS011;38158;53.338;6.514;2023-07-13T07:38:49;2.40;;;0.80;;
52180;SDS011;38158;53.338;6.514;2023-07-13T07:41:15;6.57;;;1.20;;
52180;SDS011;38158;53.338;6.514;2023-07-13T07:43:41;3.17;;;1.00;;
52180;SDS011;38158;53.338;6.514;2023-07-13T07:46:06;4.03;;;1.00;;
52180;SDS011;38158;53.338;6.514;2023-07-13T07:48:32;3.30;;;0.77;;
52180;SDS011;38158;53.338;6.514;2023-07-13T07:50:58;3.55;;;0.90;;
52180;SDS011;38158;53.338;6.514;2023-07-13T07:53:24;3.30;;;1.00;;
52180;SDS011;38158;53.338;6.514;2023-07-13T07:55:49;4.75;;;1.13;;
52180;SDS011;38158;53.338;6.514;2023-07-13T07:58:16;4.65;;;0.93;;
52180;SDS011;38158;53.338;6.514;2023-07-13T08:00:42;3.22;;;1.10;;
52180;SDS011;38158;53.338;6.514;2023-07-13T08:03:08;3.83;;;0.80;;
52180;SDS011;38158;53.338;6.514;2023-07-13T08:05:37;4.85;;;0.90;;
52180;SDS011;38158;53.338;6.514;2023-07-13T08:08:03;4.70;;;0.77;;
52180;SDS011;38158;53.338;6.514;2023-07-13T08:10:29;5.45;;;0.98;;
52180;SDS011;38158;53.338;6.514;2023-07-13T08:12:55;3.10;;;0.95;;
52180;SDS011;38158;53.338;6.514;2023-07-13T08:15:20;4.20;;;0.95;;
52180;SDS011;38158;53.338;6.514;2023-07-13T08:17:48;5.95;;;1.23;;
52180;SDS011;38158;53.338;6.514;2023-07-13T08:20:14;3.15;;;1.05;;
52180;SDS011;38158;53.338;6.514;2023-07-13T08:22:40;4.60;;;1.10;;
52180;SDS011;38158;53.338;6.514;2023-07-13T08:25:05;3.55;;;1.10;;
52180;SDS011;38158;53.338;6.514;2023-07-13T08:27:32;8.70;;;1.23;;
52180;SDS011;38158;53.338;6.514;2023-07-13T08:29:58;4.75;;;1.33;;
52180;SDS011;38158;53.338;6.514;2023-07-13T08:32:24;3.38;;;1.30;;
52180;SDS011;38158;53.338;6.514;2023-07-13T08:34:50;3.78;;;1.13;;
52180;SDS011;38158;53.338;6.514;2023-07-13T08:37:16;6.22;;;1.20;;
52180;SDS011;38158;53.338;6.514;2023-07-13T08:39:43;7.60;;;1.63;;
52180;SDS011;38158;53.338;6.514;2023-07-13T08:42:13;6.72;;;1.08;;
52180;SDS011;38158;53.338;6.514;2023-07-13T08:45:08;6.13;;;1.50;;
52180;SDS011;38158;53.338;6.514;2023-07-13T08:47:54;4.60;;;1.40;;
52180;SDS011;38158;53.338;6.514;2023-07-13T08:50:27;5.78;;;1.30;;
52180;SDS011;38158;53.338;6.514;2023-07-13T08:53:02;4.43;;;1.00;;
52180;SDS011;38158;53.338;6.514;2023-07-13T08:55:29;5.38;;;0.82;;
52180;SDS011;38158;53.338;6.514;2023-07-13T08:58:00;5.70;;;1.15;;
52180;SDS011;38158;53.338;6.514;2023-07-13T09:00:43;2.35;;;0.90;;
52180;SDS011;38158;53.338;6.514;2023-07-13T09:03:33;6.05;;;1.30;;
52180;SDS011;38158;53.338;6.514;2023-07-13T09:06:06;3.67;;;1.00;;
52180;SDS011;38158;53.338;6.514;2023-07-13T09:11:11;4.22;;;1.38;;
52180;SDS011;38158;53.338;6.514;2023-07-13T09:16:30;7.82;;;1.60;;
52180;SDS011;38158;53.338;6.514;2023-07-13T09:18:58;5.85;;;0.98;;
52180;SDS011;38158;53.338;6.514;2023-07-13T09:21:32;3.78;;;1.13;;
52180;SDS011;38158;53.338;6.514;2023-07-13T09:29:30;4.40;;;1.37;;
52180;SDS011;38158;53.338;6.514;2023-07-13T09:32:01;4.05;;;1.25;;
52180;SDS011;38158;53.338;6.514;2023-07-13T09:34:30;5.78;;;1.48;;
52180;SDS011;38158;53.338;6.514;2023-07-13T09:36:58;3.78;;;1.30;;
52180;SDS011;38158;53.338;6.514;2023-07-13T09:41:57;4.32;;;1.40;;
52180;SDS011;38158;53.338;6.514;2023-07-13T09:47:02;5.10;;;1.08;;
52180;SDS011;38158;53.338;6.514;2023-07-13T09:49:30;4.35;;;0.90;;
52180;SDS011;38158;53.338;6.514;2023-07-13T09:52:00;4.18;;;0.73;;
52180;SDS011;38158;53.338;6.514;2023-07-13T09:54:28;2.85;;;0.77;;
52180;SDS011;38158;53.338;6.514;2023-07-13T09:56:58;3.97;;;0.70;;
52180;SDS011;38158;53.338;6.514;2023-07-13T09:59:32;12.52;;;1.13;;
52180;SDS011;38158;53.338;6.514;2023-07-13T10:01:58;3.20;;;0.50;;
52180;SDS011;38158;53.338;6.514;2023-07-13T10:04:33;3.17;;;0.80;;
52180;SDS011;38158;53.338;6.514;2023-07-13T10:07:09;3.28;;;0.65;;
52180;SDS011;38158;53.338;6.514;2023-07-13T10:09:40;2.60;;;0.40;;
52180;SDS011;38158;53.338;6.514;2023-07-13T10:12:13;2.85;;;0.75;;
52180;SDS011;38158;53.338;6.514;2023-07-13T10:14:39;2.70;;;1.00;;
52180;SDS011;38158;53.338;6.514;2023-07-13T10:17:12;3.22;;;0.75;;
52180;SDS011;38158;53.338;6.514;2023-07-13T10:19:39;3.05;;;0.90;;
52180;SDS011;38158;53.338;6.514;2023-07-13T10:25:11;3.13;;;1.15;;
52180;SDS011;38158;53.338;6.514;2023-07-13T10:27:43;5.60;;;1.00;;
52180;SDS011;38158;53.338;6.514;2023-07-13T10:32:57;1.67;;;0.40;;
52180;SDS011;38158;53.338;6.514;2023-07-13T10:35:25;2.50;;;0.35;;
52180;SDS011;38158;53.338;6.514;2023-07-13T10:43:06;3.10;;;0.75;;
52180;SDS011;38158;53.338;6.514;2023-07-13T10:45:39;2.20;;;0.40;;
52180;SDS011;38158;53.338;6.514;2023-07-13T10:48:06;3.53;;;0.50;;
52180;SDS011;38158;53.338;6.514;2023-07-13T10:50:37;2.35;;;0.55;;
52180;SDS011;38158;53.338;6.514;2023-07-13T10:53:21;1.13;;;0.50;;
52180;SDS011;38158;53.338;6.514;2023-07-13T11:00:53;1.15;;;0.30;;
52180;SDS011;38158;53.338;6.514;2023-07-13T11:03:29;2.75;;;0.50;;
52180;SDS011;38158;53.338;6.514;2023-07-13T11:06:07;2.17;;;0.47;;
52180;SDS011;38158;53.338;6.514;2023-07-13T11:14:02;4.25;;;0.70;;
52180;SDS011;38158;53.338;6.514;2023-07-13T11:16:47;1.65;;;0.47;;
52180;SDS011;38158;53.338;6.514;2023-07-13T11:27:38;2.95;;;0.80;;
52180;SDS011;38158;53.338;6.514;2023-07-13T11:35:49;5.55;;;1.00;;
52180;SDS011;38158;53.338;6.514;2023-07-13T11:43:41;3.22;;;1.05;;
52180;SDS011;38158;53.338;6.514;2023-07-13T11:46:14;2.80;;;0.90;;
52180;SDS011;38158;53.338;6.514;2023-07-13T11:48:43;3.17;;;0.70;;
52180;SDS011;38158;53.338;6.514;2023-07-13T11:51:14;4.65;;;1.23;;
52180;SDS011;38158;53.338;6.514;2023-07-13T11:53:49;2.50;;;0.82;;
52180;SDS011;38158;53.338;6.514;2023-07-13T11:56:17;3.10;;;0.85;;
52180;SDS011;38158;53.338;6.514;2023-07-13T11:58:43;3.60;;;0.70;;
52180;SDS011;38158;53.338;6.514;2023-07-13T12:01:15;7.18;;;1.05;;
52180;SDS011;38158;53.338;6.514;2023-07-13T12:03:45;3.15;;;0.90;;
52180;SDS011;38158;53.338;6.514;2023-07-13T12:06:28;3.00;;;0.70;;
52180;SDS011;38158;53.338;6.514;2023-07-13T12:08:56;5.25;;;0.73;;
52180;SDS011;38158;53.338;6.514;2023-07-13T12:11:26;3.92;;;1.02;;
52180;SDS011;38158;53.338;6.514;2023-07-13T12:13:52;3.60;;;1.30;;
52180;SDS011;38158;53.338;6.514;2023-07-13T12:16:31;4.15;;;0.98;;
52180;SDS011;38158;53.338;6.514;2023-07-13T12:18:58;4.82;;;1.42;;
52180;SDS011;38158;53.338;6.514;2023-07-13T12:21:28;5.47;;;1.20;;
52180;SDS011;38158;53.338;6.514;2023-07-13T12:23:55;5.03;;;1.17;;
52180;SDS011;38158;53.338;6.514;2023-07-13T12:26:21;6.18;;;1.25;;
52180;SDS011;38158;53.338;6.514;2023-07-13T12:28:53;3.50;;;0.83;;
52180;SDS011;38158;53.338;6.514;2023-07-13T12:36:32;3.03;;;1.20;;
52180;SDS011;38158;53.338;6.514;2023-07-13T12:39:02;4.53;;;1.23;;
52180;SDS011;38158;53.338;6.514;2023-07-13T12:41:36;5.22;;;1.15;;
52180;SDS011;38158;53.338;6.514;2023-07-13T12:44:02;3.67;;;1.20;;
52180;SDS011;38158;53.338;6.514;2023-07-13T12:46:28;4.00;;;0.90;;
52180;SDS011;38158;53.338;6.514;2023-07-13T12:48:54;4.07;;;1.10;;
52180;SDS011;38158;53.338;6.514;2023-07-13T12:51:24;4.90;;;1.13;;
52180;SDS011;38158;53.338;6.514;2023-07-13T12:53:58;4.68;;;0.80;;
52180;SDS011;38158;53.338;6.514;2023-07-13T12:56:36;4.68;;;1.10;;
52180;SDS011;38158;53.338;6.514;2023-07-13T12:59:03;5.63;;;1.55;;
52180;SDS011;38158;53.338;6.514;2023-07-13T13:01:31;6.03;;;1.15;;
52180;SDS011;38158;53.338;6.514;2023-07-13T13:04:01;6.55;;;1.23;;
52180;SDS011;38158;53.338;6.514;2023-07-13T13:06:34;6.25;;;1.30;;
52180;SDS011;38158;53.338;6.514;2023-07-13T13:09:01;5.97;;;1.27;;
52180;SDS011;38158;53.338;6.514;2023-07-13T13:11:29;5.15;;;1.45;;
52180;SDS011;38158;53.338;6.514;2023-07-13T13:13:56;4.22;;;1.08;;
52180;SDS011;38158;53.338;6.514;2023-07-13T13:18:52;5.60;;;1.17;;
52180;SDS011;38158;53.338;6.514;2023-07-13T13:21:20;4.95;;;1.45;;
52180;SDS011;38158;53.338;6.514;2023-07-13T13:23:46;6.85;;;1.83;;
52180;SDS011;38158;53.338;6.514;2023-07-13T13:26:15;6.28;;;1.23;;
52180;SDS011;38158;53.338;6.514;2023-07-13T13:28:44;5.95;;;1.48;;
52180;SDS011;38158;53.338;6.514;2023-07-13T13:31:11;4.85;;;1.00;;
52180;SDS011;38158;53.338;6.514;2023-07-13T13:33:37;3.92;;;1.33;;
52180;SDS011;38158;53.338;6.514;2023-07-13T13:36:18;6.68;;;1.40;;
52180;SDS011;38158;53.338;6.514;2023-07-13T13:38:45;5.63;;;1.05;;
52180;SDS011;38158;53.338;6.514;2023-07-13T13:41:13;7.05;;;1.27;;
52180;SDS011;38158;53.338;6.514;2023-07-13T13:43:40;4.30;;;1.35;;
52180;SDS011;38158;53.338;6.514;2023-07-13T13:48:40;5.47;;;1.20;;
52180;SDS011;38158;53.338;6.514;2023-07-13T13:51:25;3.30;;;0.93;;
52180;SDS011;38158;53.338;6.514;2023-07-13T13:53:51;6.40;;;1.30;;
52180;SDS011;38158;53.338;6.514;2023-07-13T13:56:18;6.10;;;1.13;;
52180;SDS011;38158;53.338;6.514;2023-07-13T13:58:45;6.00;;;1.23;;
52180;SDS011;38158;53.338;6.514;2023-07-13T14:01:12;5.35;;;0.98;;
52180;SDS011;38158;53.338;6.514;2023-07-13T14:03:44;4.80;;;1.45;;
52180;SDS011;38158;53.338;6.514;2023-07-13T14:06:13;4.78;;;1.27;;
52180;SDS011;38158;53.338;6.514;2023-07-13T14:08:40;5.85;;;1.13;;
52180;SDS011;38158;53.338;6.514;2023-07-13T14:11:07;5.50;;;1.25;;
52180;SDS011;38158;53.338;6.514;2023-07-13T14:13:41;4.72;;;1.20;;
52180;SDS011;38158;53.338;6.514;2023-07-13T14:16:18;3.20;;;0.80;;
52180;SDS011;38158;53.338;6.514;2023-07-13T14:18:46;3.53;;;1.00;;
52180;SDS011;38158;53.338;6.514;2023-07-13T14:21:16;3.13;;;0.90;;
52180;SDS011;38158;53.338;6.514;2023-07-13T14:23:45;3.55;;;0.98;;
52180;SDS011;38158;53.338;6.514;2023-07-13T14:26:13;4.88;;;1.30;;
52180;SDS011;38158;53.338;6.514;2023-07-13T14:28:48;5.55;;;1.10;;
52180;SDS011;38158;53.338;6.514;2023-07-13T14:31:16;5.45;;;1.27;;
52180;SDS011;38158;53.338;6.514;2023-07-13T14:33:43;4.35;;;1.20;;
52180;SDS011;38158;53.338;6.514;2023-07-13T14:38:59;6.65;;;1.50;;
52180;SDS011;38158;53.338;6.514;2023-07-13T14:41:36;5.93;;;1.33;;
52180;SDS011;38158;53.338;6.514;2023-07-13T14:44:07;5.10;;;1.27;;
52180;SDS011;38158;53.338;6.514;2023-07-13T14:46:46;5.97;;;1.10;;
52180;SDS011;38158;53.338;6.514;2023-07-13T14:51:54;8.15;;;1.50;;
52180;SDS011;38158;53.338;6.514;2023-07-13T14:54:22;7.68;;;1.45;;
52180;SDS011;38158;53.338;6.514;2023-07-13T14:56:48;5.27;;;1.17;;
52180;SDS011;38158;53.338;6.514;2023-07-13T14:59:15;3.05;;;1.20;;
52180;SDS011;38158;53.338;6.514;2023-07-13T15:01:43;5.32;;;1.25;;
52180;SDS011;38158;53.338;6.514;2023-07-13T15:04:10;5.75;;;1.60;;
52180;SDS011;38158;53.338;6.514;2023-07-13T15:09:26;6.57;;;1.15;;
52180;SDS011;38158;53.338;6.514;2023-07-13T15:11:57;6.00;;;1.50;;
52180;SDS011;38158;53.338;6.514;2023-07-13T15:14:24;5.07;;;1.02;;
52180;SDS011;38158;53.338;6.514;2023-07-13T15:19:18;7.57;;;1.50;;
52180;SDS011;38158;53.338;6.514;2023-07-13T15:21:46;5.03;;;1.35;;
52180;SDS011;38158;53.338;6.514;2023-07-13T15:24:13;4.95;;;1.30;;
52180;SDS011;38158;53.338;6.514;2023-07-13T15:26:39;5.05;;;1.48;;
52180;SDS011;38158;53.338;6.514;2023-07-13T15:29:08;7.22;;;1.50;;
52180;SDS011;38158;53.338;6.514;2023-07-13T15:31:33;5.38;;;1.33;;
52180;SDS011;38158;53.338;6.514;2023-07-13T15:34:03;4.88;;;1.50;;
52180;SDS011;38158;53.338;6.514;2023-07-13T15:36:35;9.10;;;1.77;;
52180;SDS011;38158;53.338;6.514;2023-07-13T15:39:01;4.78;;;1.55;;
52180;SDS011;38158;53.338;6.514;2023-07-13T15:41:28;5.50;;;1.30;;
52180;SDS011;38158;53.338;6.514;2023-07-13T15:43:55;4.88;;;1.35;;
52180;SDS011;38158;53.338;6.514;2023-07-13T15:46:26;5.88;;;1.40;;
52180;SDS011;38158;53.338;6.514;2023-07-13T15:48:53;5.97;;;1.40;;
52180;SDS011;38158;53.338;6.514;2023-07-13T15:53:58;6.00;;;1.40;;
52180;SDS011;38158;53.338;6.514;2023-07-13T15:56:33;4.13;;;1.30;;
52180;SDS011;38158;53.338;6.514;2023-07-13T15:59:02;4.03;;;1.80;;
52180;SDS011;38158;53.338;6.514;2023-07-13T16:01:28;4.55;;;1.20;;
52180;SDS011;38158;53.338;6.514;2023-07-13T16:03:55;7.70;;;1.30;;
52180;SDS011;38158;53.338;6.514;2023-07-13T16:06:26;4.25;;;1.58;;
52180;SDS011;38158;53.338;6.514;2023-07-13T16:08:55;8.10;;;1.75;;
52180;SDS011;38158;53.338;6.514;2023-07-13T16:11:24;6.07;;;1.38;;
52180;SDS011;38158;53.338;6.514;2023-07-13T16:13:52;6.20;;;1.25;;
52180;SDS011;38158;53.338;6.514;2023-07-13T16:16:25;6.57;;;1.30;;
52180;SDS011;38158;53.338;6.514;2023-07-13T16:18:54;3.80;;;1.10;;
52180;SDS011;38158;53.338;6.514;2023-07-13T16:21:27;7.13;;;1.67;;
52180;SDS011;38158;53.338;6.514;2023-07-13T16:23:56;3.00;;;0.80;;
52180;SDS011;38158;53.338;6.514;2023-07-13T16:26:31;7.30;;;1.38;;